Time;durP1;ratioP1;P1;durP2;ratioP2;P2;SDS_P1;SDS_P2;PMS_P1;PMS_P2;Temp;Humidity;BMP_temperature;BMP_pressure;BME280_temperature;BME280_humidity;BME280_pressure;Samples;Min_cycle;Max_cycle;Signal;HPM_P1;HPM_P2
2022/03/18 00:01:50;;;;;;;;;34.67;31.67;;;;;7.15;100.00;103322.84;5077293;27;45477;-82
2022/03/18 00:04:16;;;;;;;;;39.67;33.00;;;;;7.16;100.00;103307.00;5076182;27;45647;-81
2022/03/18 00:06:42;;;;;;;;;43.00;33.33;;;;;7.14;100.00;103310.53;5076809;27;45314;-81
2022/03/18 00:09:07;;;;;;;;;24.33;24.33;;;;;7.10;100.00;103309.69;5075972;27;44890;-82
2022/03/18 00:11:33;;;;;;;;;41.33;35.33;;;;;7.07;100.00;103308.84;5077294;27;45482;-82
2022/03/18 00:13:58;;;;;;;;;40.67;34.33;;;;;7.06;100.00;103318.56;5078021;27;45333;-83
2022/03/18 00:16:26;;;;;;;;;45.33;36.33;;;;;7.04;100.00;103301.81;5082077;27;45042;-82
2022/03/18 00:18:52;;;;;;;;;40.33;34.00;;;;;7.05;100.00;103316.78;5079843;27;44740;-81
2022/03/18 00:21:17;;;;;;;;;47.00;39.67;;;;;6.99;100.00;103311.56;5076139;27;45259;-81
2022/03/18 00:23:42;;;;;;;;;30.00;26.33;;;;;6.97;100.00;103310.72;5077304;28;45362;-80
2022/03/18 00:26:08;;;;;;;;;43.33;38.67;;;;;6.93;100.00;103316.94;5079494;27;45456;-81
2022/03/18 00:28:34;;;;;;;;;41.33;34.67;;;;;6.95;100.00;103312.50;5079581;27;45358;-81
2022/03/18 00:31:00;;;;;;;;;45.33;38.67;;;;;6.92;100.00;103308.13;5081254;27;44774;-81
2022/03/18 00:33:25;;;;;;;;;40.00;35.67;;;;;6.97;100.00;103310.72;5081879;27;45409;-81
2022/03/18 00:35:51;;;;;;;;;47.00;40.00;;;;;6.96;100.00;103308.94;5080239;27;45250;-81
2022/03/18 00:38:17;;;;;;;;;43.00;36.67;;;;;6.93;100.00;103309.88;5079338;27;45500;-81
2022/03/18 00:40:44;;;;;;;;;50.00;39.67;;;;;6.91;100.00;103313.41;5080974;27;44808;-82
2022/03/18 00:43:10;;;;;;;;;32.33;29.33;;;;;6.89;100.00;103321.34;5085631;27;45277;-81
2022/03/18 00:45:36;;;;;;;;;41.33;36.00;;;;;6.85;100.00;103314.34;5079262;27;44913;-82
2022/03/18 00:53:29;;;;;;;;;39.00;27.33;;;;;6.79;100.00;103319.69;5078546;27;45370;-82
2022/03/18 00:55:55;;;;;;;;;47.67;38.00;;;;;6.82;100.00;103322.31;5078924;27;45193;-82
2022/03/18 00:58:20;;;;;;;;;41.67;31.33;;;;;6.80;100.00;103317.94;5079177;27;45349;-82
2022/03/18 01:00:46;;;;;;;;;40.00;29.67;;;;;6.78;100.00;103315.31;5079743;27;44656;-82
2022/03/18 01:03:12;;;;;;;;;50.00;39.33;;;;;6.78;100.00;103319.72;5078784;27;44912;-82
2022/03/18 01:05:38;;;;;;;;;32.33;28.67;;;;;6.77;100.00;103313.56;5080399;27;45202;-82
2022/03/18 01:08:03;;;;;;;;;52.00;40.33;;;;;6.73;100.00;103322.41;5079921;27;45220;-81
2022/03/18 01:10:29;;;;;;;;;48.33;40.33;;;;;6.73;100.00;103322.41;5082328;27;44757;-81
2022/03/18 01:12:58;;;;;;;;;39.67;36.00;;;;;6.71;100.00;103316.25;5087888;27;44868;-81
2022/03/18 01:15:24;;;;;;;;;42.00;36.67;;;;;6.70;100.00;103325.06;5080790;27;45151;-81
2022/03/18 01:17:50;;;;;;;;;42.00;36.00;;;;;6.70;100.00;103323.28;5079618;27;44942;-82
2022/03/18 01:20:15;;;;;;;;;46.33;37.00;;;;;6.67;100.00;103326.00;5078541;28;45260;-81
2022/03/18 01:22:40;;;;;;;;;38.00;33.33;;;;;6.67;100.00;103331.28;5080863;27;44870;-81
2022/03/18 01:25:06;;;;;;;;;45.00;36.00;;;;;6.67;100.00;103331.28;5082461;27;45720;-81
2022/03/18 01:27:32;;;;;;;;;39.33;34.67;;;;;6.63;100.00;103333.94;5079147;27;45267;-81
2022/03/18 01:29:57;;;;;;;;;48.00;38.67;;;;;6.64;100.00;103338.34;5078616;27;44743;-81
2022/03/18 01:32:23;;;;;;;;;44.67;37.00;;;;;6.64;100.00;103339.22;5080704;28;44834;-81
2022/03/18 01:34:48;;;;;;;;;46.00;35.67;;;;;6.62;100.00;103338.38;5082429;27;45397;-80
2022/03/18 01:37:14;;;;;;;;;33.33;26.33;;;;;6.60;100.00;103336.59;5082290;27;44739;-81
2022/03/18 01:39:39;;;;;;;;;48.00;37.33;;;;;6.60;100.00;103328.69;5078880;27;45489;-81
2022/03/18 01:42:05;;;;;;;;;44.00;38.00;;;;;6.59;100.00;103329.56;5081892;27;45420;-81
2022/03/18 01:44:39;;;;;;;;;49.00;36.00;;;;;6.62;100.00;103332.16;5084900;27;44898;-81
2022/03/18 01:47:04;;;;;;;;;33.00;33.00;;;;;6.57;100.00;103311.09;5078045;27;45445;-81
2022/03/18 01:49:29;;;;;;;;;32.33;29.00;;;;;6.62;100.00;103330.44;5078262;27;44764;-81
2022/03/18 01:51:55;;;;;;;;;27.67;27.33;;;;;6.63;100.00;103332.19;5077679;28;44943;-80
2022/03/18 01:57:04;;;;;;;;;46.00;35.00;;;;;6.68;100.00;103334.78;5057466;28;45550;-80
2022/03/18 01:59:29;;;;;;;;;40.00;32.67;;;;;6.76;100.00;103330.28;5057870;28;45700;-80
2022/03/18 02:01:55;;;;;;;;;46.33;40.00;;;;;6.76;100.00;103332.94;5057979;28;45345;-81
2022/03/18 02:04:20;;;;;;;;;45.67;36.33;;;;;6.75;100.00;103332.94;5056745;28;46226;-82
2022/03/18 02:06:46;;;;;;;;;47.00;36.00;;;;;6.76;100.00;103329.41;5057715;28;45483;-81
2022/03/18 02:09:11;;;;;;;;;32.00;32.00;;;;;6.75;100.00;103330.31;5056291;28;44899;-81
2022/03/18 02:11:38;;;;;;;;;49.33;37.67;;;;;6.76;100.00;103324.13;5058292;28;44782;-81
2022/03/18 02:14:03;;;;;;;;;45.67;35.33;;;;;6.74;100.00;103337.38;5060100;28;45145;-79
2022/03/18 02:16:30;;;;;;;;;50.67;36.67;;;;;6.74;100.00;103325.91;5064430;28;44729;-80
2022/03/18 02:18:55;;;;;;;;;43.00;35.33;;;;;6.72;100.00;103323.31;5062328;28;45161;-81
2022/03/18 02:21:21;;;;;;;;;44.33;36.67;;;;;6.68;100.00;103326.88;5057178;28;44931;-82
2022/03/18 02:23:46;;;;;;;;;43.33;37.00;;;;;6.67;100.00;103327.72;5058038;28;46004;-82
2022/03/18 02:26:15;;;;;;;;;45.33;35.67;;;;;6.63;100.00;103326.91;5058002;27;45230;-80
2022/03/18 02:28:40;;;;;;;;;50.67;35.67;;;;;6.62;100.00;103333.06;5059363;28;44740;-81
2022/03/18 02:31:06;;;;;;;;;45.33;39.00;;;;;6.59;100.00;103332.22;5062229;28;45281;-79
2022/03/18 02:33:31;;;;;;;;;50.67;40.00;;;;;6.57;100.00;103344.53;5064499;28;44991;-81
2022/03/18 02:35:57;;;;;;;;;42.33;31.67;;;;;6.56;100.00;103341.03;5065281;28;45454;-80
2022/03/18 02:38:23;;;;;;;;;48.00;40.00;;;;;6.54;100.00;103337.53;5062020;28;44800;-82
2022/03/18 02:40:48;;;;;;;;;51.33;42.67;;;;;6.53;100.00;103329.63;5059439;28;45332;-80
2022/03/18 02:43:14;;;;;;;;;43.33;36.00;;;;;6.54;100.00;103328.75;5059828;27;46104;-80
2022/03/18 02:45:39;;;;;;;;;47.00;39.00;;;;;6.53;100.00;103337.56;5059780;28;44871;-80
2022/03/18 02:48:06;;;;;;;;;47.00;39.33;;;;;6.53;100.00;103322.59;5064115;28;45225;-81
2022/03/18 02:50:32;;;;;;;;;46.33;35.67;;;;;6.53;100.00;103317.31;5065677;28;45237;-80
2022/03/18 02:52:57;;;;;;;;;47.67;37.67;;;;;6.52;100.00;103323.44;5060165;27;45538;-81
2022/03/18 02:55:22;;;;;;;;;53.33;39.67;;;;;6.51;100.00;103327.00;5077882;27;44850;-81
2022/03/18 02:57:48;;;;;;;;;50.67;41.33;;;;;6.48;100.00;103331.41;5078248;27;44749;-82
2022/03/18 03:00:13;;;;;;;;;58.00;43.33;;;;;6.46;100.00;103334.06;5077408;27;45276;-82
2022/03/18 03:02:39;;;;;;;;;44.00;36.67;;;;;6.44;100.00;103335.88;5077074;27;47110;-81
2022/03/18 03:07:59;;;;;;;;;45.67;37.33;;;;;6.44;100.00;103331.47;5079365;28;45505;-81
2022/03/18 03:10:26;;;;;;;;;46.67;39.00;;;;;6.44;100.00;103341.16;5080823;27;44841;-82
2022/03/18 03:12:51;;;;;;;;;51.33;38.67;;;;;6.41;100.00;103342.03;5080774;27;45093;-82
2022/03/18 03:15:17;;;;;;;;;31.33;26.67;;;;;6.39;100.00;103341.19;5078366;27;45392;-81
2022/03/18 03:17:43;;;;;;;;;45.67;35.33;;;;;6.36;100.00;103354.38;5077461;27;44697;-81
2022/03/18 03:20:09;;;;;;;;;49.00;39.67;;;;;6.32;100.00;103339.47;5078522;28;45271;-81
2022/03/18 03:22:35;;;;;;;;;60.00;42.00;;;;;6.31;100.00;103337.72;5080335;27;45284;-82
2022/03/18 03:25:00;;;;;;;;;55.33;44.33;;;;;6.31;100.00;103347.41;5083508;27;45212;-81
2022/03/18 03:27:29;;;;;;;;;51.33;39.33;;;;;6.30;100.00;103353.56;5076752;27;44678;-80
2022/03/18 03:30:00;;;;;;;;;53.00;43.33;;;;;6.28;100.00;103345.63;5076839;27;45437;-81
2022/03/18 03:32:26;;;;;;;;;59.00;47.00;;;;;6.28;100.00;103364.13;5076706;27;45182;-81
2022/03/18 03:34:52;;;;;;;;;57.00;46.33;;;;;6.29;100.00;103365.03;5077142;27;44781;-80
2022/03/18 03:37:17;;;;;;;;;63.00;50.33;;;;;6.25;100.00;103372.06;5079090;27;45430;-81
2022/03/18 03:39:42;;;;;;;;;72.33;55.33;;;;;6.24;100.00;103359.78;5080970;27;44842;-81
2022/03/18 03:42:08;;;;;;;;;60.00;48.50;;;;;6.25;100.00;103368.56;5075809;27;46712;-81
2022/03/18 03:44:33;;;;;;;;;54.33;42.00;;;;;6.13;100.00;103359.81;5077790;27;44766;-81
2022/03/18 03:46:59;;;;;;;;;52.67;42.33;;;;;6.05;100.00;103369.56;5076124;27;45485;-80
2022/03/18 03:49:24;;;;;;;;;53.67;43.33;;;;;5.99;100.00;103376.63;5077014;27;45482;-80
2022/03/18 03:51:50;;;;;;;;;56.67;43.00;;;;;5.92;100.00;103363.47;5076482;27;45144;-80
2022/03/18 03:54:15;;;;;;;;;57.33;45.00;;;;;5.85;100.00;103360.81;5076484;27;44776;-80
2022/03/18 03:56:40;;;;;;;;;56.33;45.67;;;;;5.83;100.00;103368.75;5077357;27;45127;-81
2022/03/18 03:59:06;;;;;;;;;44.67;38.67;;;;;5.81;100.00;103361.75;5083734;27;45311;-81
2022/03/18 04:01:34;;;;;;;;;54.33;44.00;;;;;5.81;100.00;103374.94;5084947;27;45162;-80
2022/03/18 04:03:59;;;;;;;;;56.33;46.00;;;;;5.83;100.00;103371.38;5082991;27;44704;-81
2022/03/18 04:06:25;;;;;;;;;58.33;47.00;;;;;5.84;100.00;103370.50;5081983;27;44758;-81
2022/03/18 04:08:51;;;;;;;;;54.67;44.33;;;;;5.80;100.00;103375.78;5080518;27;45303;-81
2022/03/18 04:11:16;;;;;;;;;59.33;44.33;;;;;5.78;100.00;103380.22;5078344;27;46485;-81
2022/03/18 04:13:41;;;;;;;;;64.00;49.67;;;;;5.79;100.00;103393.38;5079963;27;45367;-80
2022/03/18 04:16:07;;;;;;;;;58.33;49.67;;;;;5.76;100.00;103392.53;5078927;27;45497;-83
2022/03/18 04:18:32;;;;;;;;;52.00;40.67;;;;;5.70;100.00;103385.50;5080335;27;45146;-79
2022/03/18 04:20:58;;;;;;;;;66.00;49.33;;;;;5.69;100.00;103391.66;5080182;27;45041;-81
2022/03/18 04:23:23;;;;;;;;;62.67;48.67;;;;;5.66;100.00;103394.34;5080081;27;44692;-82
2022/03/18 04:25:51;;;;;;;;;56.33;46.00;;;;;5.66;100.00;103384.66;5080473;27;45261;-81
2022/03/18 04:28:19;;;;;;;;;58.33;44.00;;;;;5.68;100.00;103377.59;5081488;27;45259;-81
2022/03/18 04:30:44;;;;;;;;;56.67;45.67;;;;;5.66;100.00;103382.03;5081998;27;45249;-81
2022/03/18 04:33:09;;;;;;;;;51.33;44.33;;;;;5.64;100.00;103386.41;5082152;27;44849;-81
2022/03/18 04:35:35;;;;;;;;;47.33;36.33;;;;;5.65;100.00;103403.09;5087322;27;44959;-82
2022/03/18 04:38:00;;;;;;;;;54.33;46.00;;;;;5.62;100.00;103403.13;5086234;27;44778;-81
2022/03/18 04:40:26;;;;;;;;;49.67;39.33;;;;;5.65;100.00;103411.00;5083120;27;45500;-83
2022/03/18 04:42:52;;;;;;;;;50.67;40.67;;;;;5.66;100.00;103404.88;5083805;27;45347;-81
2022/03/18 04:45:17;;;;;;;;;52.00;41.67;;;;;5.63;100.00;103413.66;5082068;27;45119;-79
2022/03/18 04:47:43;;;;;;;;;46.33;39.00;;;;;5.61;100.00;103420.72;5078192;27;45239;-82
2022/03/18 04:50:10;;;;;;;;;43.33;36.00;;;;;5.58;100.00;103419.84;5079045;27;45521;-82
2022/03/18 04:52:36;;;;;;;;;65.67;53.33;;;;;5.56;100.00;103430.41;5077566;27;45307;-82
2022/03/18 04:55:02;;;;;;;;;73.33;56.67;;;;;5.57;100.00;103434.78;5081598;27;45386;-81
2022/03/18 04:57:27;;;;;;;;;53.33;41.67;;;;;5.53;100.00;103432.16;5080668;27;44947;-83
2022/03/18 04:59:53;;;;;;;;;47.67;39.67;;;;;5.49;100.00;103425.13;5078566;27;45307;-82
2022/03/18 05:02:20;;;;;;;;;54.00;44.67;;;;;5.49;100.00;103420.75;5078820;27;45322;-81
2022/03/18 05:04:48;;;;;;;;;39.50;35.50;;;;;5.44;100.00;103427.78;5079273;27;45313;-81
2022/03/18 05:07:14;;;;;;;;;37.00;33.33;;;;;5.43;100.00;103417.25;5079771;27;45142;-82
2022/03/18 05:09:41;;;;;;;;;43.00;36.67;;;;;5.40;100.00;103415.47;5083264;27;45363;-80
2022/03/18 05:12:08;;;;;;;;;39.67;34.00;;;;;5.36;100.00;103414.59;5085134;27;45458;-82
2022/03/18 05:14:35;;;;;;;;;57.00;45.00;;;;;5.36;100.00;103411.09;5077390;27;45384;-82
2022/03/18 05:17:01;;;;;;;;;37.33;32.67;;;;;5.37;100.00;103431.31;5079843;27;45211;-80
2022/03/18 05:19:26;;;;;;;;;38.67;36.33;;;;;5.36;100.00;103433.06;5079480;27;45442;-81
2022/03/18 05:21:52;;;;;;;;;42.67;35.00;;;;;5.35;100.00;103438.34;5079313;27;45319;-81
2022/03/18 05:24:17;;;;;;;;;32.33;28.33;;;;;5.32;100.00;103441.88;5081066;27;44982;-79
2022/03/18 05:26:43;;;;;;;;;54.33;44.67;;;;;5.31;100.00;103445.38;5080830;27;45261;-82
2022/03/18 05:29:09;;;;;;;;;37.00;32.33;;;;;5.28;100.00;103447.16;5080101;27;45248;-81
2022/03/18 05:31:36;;;;;;;;;45.00;38.00;;;;;5.26;100.00;103441.00;5080605;27;44804;-81
2022/03/18 05:34:01;;;;;;;;;46.00;39.00;;;;;5.23;100.00;103451.56;5081558;27;44812;-82
2022/03/18 05:36:27;;;;;;;;;43.00;35.00;;;;;5.20;100.00;103456.81;5080352;28;45475;-82
2022/03/18 05:38:52;;;;;;;;;47.33;38.00;;;;;5.18;100.00;103455.94;5077763;27;46400;-82
2022/03/18 05:41:18;;;;;;;;;35.00;30.00;;;;;5.17;100.00;103455.03;5078147;27;44901;-82
2022/03/18 05:43:44;;;;;;;;;41.67;32.67;;;;;5.16;100.00;103458.56;5080634;27;45261;-81
2022/03/18 05:46:10;;;;;;;;;31.67;29.00;;;;;5.15;100.00;103468.22;5082276;27;45292;-81
2022/03/18 05:48:35;;;;;;;;;29.33;21.33;;;;;5.14;100.00;103460.34;5082352;27;45531;-82
2022/03/18 05:51:00;;;;;;;;;33.33;32.00;;;;;5.16;100.00;103451.53;5085155;27;44814;-81
2022/03/18 05:53:28;;;;;;;;;35.33;29.67;;;;;5.21;100.00;103467.34;5081443;27;44853;-82
2022/03/18 05:58:39;;;;;;;;;39.67;34.33;;;;;5.23;100.00;103456.81;5078671;27;44995;-84
2022/03/18 06:01:04;;;;;;;;;40.33;35.33;;;;;5.21;100.00;103458.56;5078236;27;44893;-81
2022/03/18 06:03:30;;;;;;;;;41.67;35.67;;;;;5.26;100.00;103447.13;5079048;27;45484;-80
2022/03/18 06:05:55;;;;;;;;;36.33;28.67;;;;;5.26;100.00;103446.25;5080349;27;44736;-83
2022/03/18 06:13:48;;;;;;;;;38.00;36.33;;;;;5.24;100.00;103471.75;5078607;27;44709;-83
2022/03/18 06:16:14;;;;;;;;;36.00;31.67;;;;;5.24;100.00;103463.84;5079137;27;44829;-84
2022/03/18 06:18:39;;;;;;;;;30.33;30.00;;;;;5.26;100.00;103475.25;5079551;27;44930;-84
2022/03/18 06:21:06;;;;;;;;;29.33;29.33;;;;;5.26;100.00;103481.41;5080830;27;44815;-84
2022/03/18 06:23:32;;;;;;;;;40.00;35.00;;;;;5.27;100.00;103475.28;5087772;27;44777;-86
2022/03/18 06:25:59;;;;;;;;;42.00;36.00;;;;;5.28;100.00;103471.75;5088456;27;44850;-84
2022/03/18 06:28:24;;;;;;;;;44.33;37.33;;;;;5.33;100.00;103472.63;5083990;27;46210;-85
2022/03/18 06:30:50;;;;;;;;;40.00;30.33;;;;;5.36;100.00;103477.88;5084605;27;44783;-83
2022/03/18 06:33:16;;;;;;;;;41.33;35.33;;;;;5.38;100.00;103473.50;5080159;27;45595;-84
2022/03/18 06:35:41;;;;;;;;;45.67;39.67;;;;;5.37;100.00;103479.66;5080217;27;44927;-85
2022/03/18 06:38:08;;;;;;;;;28.00;24.00;;;;;5.39;100.00;103469.09;5082580;27;47188;-83
2022/03/18 06:40:33;;;;;;;;;39.00;29.00;;;;;5.46;100.00;103480.50;5081622;27;44729;-84
2022/03/18 06:42:58;;;;;;;;;35.33;31.67;;;;;5.49;100.00;103478.75;5084114;27;45577;-84
2022/03/18 06:45:24;;;;;;;;;32.00;29.67;;;;;5.57;100.00;103478.75;5083351;27;45319;-83
2022/03/18 06:47:49;;;;;;;;;34.33;31.33;;;;;5.67;100.00;103472.56;5082405;27;45446;-86
2022/03/18 06:50:15;;;;;;;;;41.00;35.33;;;;;5.73;100.00;103485.72;5081764;28;44786;-85
2022/03/18 06:52:40;;;;;;;;;33.33;27.67;;;;;5.75;100.00;103480.44;5082082;27;45493;-84
2022/03/18 06:55:06;;;;;;;;;32.33;28.33;;;;;5.78;100.00;103477.81;5057893;28;44761;-86
2022/03/18 06:57:32;;;;;;;;;35.67;32.33;;;;;5.81;100.00;103491.88;5061204;28;45293;-85
2022/03/18 06:59:57;;;;;;;;;30.33;25.33;;;;;5.85;100.00;103475.16;5060839;28;44769;-85
2022/03/18 07:02:22;;;;;;;;;39.67;32.67;;;;;5.87;100.00;103468.09;5065580;28;44901;-84
2022/03/18 07:04:48;;;;;;;;;35.67;28.00;;;;;5.88;100.00;103476.88;5061113;27;44938;-84
2022/03/18 07:07:13;;;;;;;;;32.33;31.67;;;;;5.88;100.00;103463.69;5058402;28;45504;-85
2022/03/18 07:09:38;;;;;;;;;35.00;32.00;;;;;5.88;100.00;103466.34;5058623;28;45261;-85
2022/03/18 07:12:04;;;;;;;;;38.67;32.67;;;;;5.90;100.00;103468.09;5057187;28;44789;-83
2022/03/18 07:14:30;;;;;;;;;34.00;26.67;;;;;5.91;100.00;103466.34;5057733;28;44795;-85
2022/03/18 07:19:39;;;;;;;;;23.00;19.67;;;;;5.97;100.00;103483.94;5057557;28;44706;-85
2022/03/18 07:22:05;;;;;;;;;31.00;25.33;;;;;5.98;100.00;103480.41;5057458;28;45405;-85
2022/03/18 07:24:31;;;;;;;;;34.67;33.67;;;;;6.01;100.00;103489.19;5057185;28;45312;-84
2022/03/18 07:26:56;;;;;;;;;25.33;18.00;;;;;6.05;100.00;103477.75;5056582;28;45421;-85
2022/03/18 07:29:21;;;;;;;;;35.67;26.00;;;;;6.05;100.00;103463.69;5057218;28;45258;-85
2022/03/18 07:31:47;;;;;;;;;35.00;31.33;;;;;6.07;100.00;103470.69;5057628;28;45283;-84
2022/03/18 07:34:12;;;;;;;;;30.67;23.33;;;;;6.08;100.00;103467.16;5063802;28;45307;-85
2022/03/18 07:36:38;;;;;;;;;29.67;27.67;;;;;6.13;100.00;103464.50;5064001;28;44987;-85
2022/03/18 07:39:03;;;;;;;;;22.33;22.00;;;;;6.20;100.00;103470.66;5066698;28;44729;-83
2022/03/18 07:41:28;;;;;;;;;36.33;30.00;;;;;6.24;100.00;103459.16;5070063;28;45242;-84
2022/03/18 07:43:54;;;;;;;;;33.00;30.67;;;;;6.33;100.00;103467.91;5066222;28;45433;-84
2022/03/18 07:46:19;;;;;;;;;25.33;24.00;;;;;6.42;100.00;103480.19;5071100;27;45084;-84
2022/03/18 07:48:46;;;;;;;;;29.67;26.00;;;;;6.53;100.00;103475.75;5082756;27;44855;-87
2022/03/18 07:51:12;;;;;;;;;30.33;30.00;;;;;6.63;100.00;103466.00;5070088;28;45244;-87
2022/03/18 07:53:37;;;;;;;;;34.67;28.67;;;;;6.73;100.00;103472.97;5098804;27;44825;-85
2022/03/18 07:56:05;;;;;;;;;26.67;22.33;;;;;6.80;100.00;103469.41;5112331;27;45003;-85
2022/03/18 07:58:30;;;;;;;;;36.67;29.33;;;;;6.91;100.00;103470.22;5102144;27;44695;-88
2022/03/18 08:00:56;;;;;;;;;25.33;25.33;;;;;7.02;100.00;103469.25;5065632;28;45320;-86
2022/03/18 08:03:22;;;;;;;;;27.33;26.33;;;;;7.16;100.00;103473.53;5069500;28;44714;-85
2022/03/18 08:05:47;;;;;;;;;33.67;23.33;;;;;7.33;100.00;103475.13;5094816;27;45571;-84
2022/03/18 08:08:13;;;;;;;;;28.33;26.00;;;;;7.39;100.00;103478.59;5089945;27;44827;-87
2022/03/18 08:10:39;;;;;;;;;30.00;29.33;;;;;7.43;100.00;103474.16;5078870;28;44743;-85
2022/03/18 08:13:05;;;;;;;;;28.67;26.67;;;;;7.50;100.00;103470.56;5076745;27;44902;-85
2022/03/18 08:15:30;;;;;;;;;24.33;21.00;;;;;7.61;100.00;103470.47;5081731;27;44990;-85
2022/03/18 08:18:04;;;;;;;;;33.00;29.33;;;;;7.68;100.00;103480.06;5069636;28;44800;-88
2022/03/18 08:20:30;;;;;;;;;40.67;33.67;;;;;7.69;100.00;103476.56;5068973;27;45427;-89
2022/03/18 08:22:57;;;;;;;;;25.33;22.67;;;;;7.76;100.00;103469.41;5063760;27;44900;-88
2022/03/18 08:25:23;;;;;;;;;39.67;31.00;;;;;7.84;100.00;103471.09;5067092;28;45478;-89
2022/03/18 08:27:49;;;;;;;;;25.00;24.33;;;;;7.93;100.00;103481.56;5078817;27;44729;-87
2022/03/18 08:30:14;;;;;;;;;41.00;32.00;;;;;8.06;100.00;103487.56;5064355;28;45431;-88
2022/03/18 08:32:40;;;;;;;;;8.67;7.67;;;;;8.09;100.00;103479.59;5059329;28;44877;-88
2022/03/18 08:35:07;;;;;;;;;25.00;19.33;;;;;8.20;100.00;103482.97;5064740;28;45002;-90
2022/03/18 08:40:16;;;;;;;;;33.33;29.00;;;;;8.33;100.00;103489.00;5070420;28;44667;-87
2022/03/18 08:42:42;;;;;;;;;32.00;27.67;;;;;8.36;100.00;103482.78;5066069;28;44863;-87
2022/03/18 08:45:08;;;;;;;;;45.67;35.00;;;;;8.38;100.00;103487.19;5063253;28;45467;-87
2022/03/18 08:47:34;;;;;;;;;25.00;17.00;;;;;8.43;100.00;103489.78;5072329;27;45376;-87
2022/03/18 08:49:59;;;;;;;;;20.67;13.00;;;;;8.46;100.00;103481.78;5062486;28;45347;-88
2022/03/18 08:52:25;;;;;;;;;27.67;25.33;;;;;8.56;100.00;103490.47;5066159;28;45322;-87
2022/03/18 08:54:50;;;;;;;;;33.33;29.00;;;;;8.58;100.00;103486.03;5075406;28;45390;-87
2022/03/18 08:57:17;;;;;;;;;28.67;27.33;;;;;8.69;100.00;103470.84;5084114;28;44713;-87
2022/03/18 08:59:44;;;;;;;;;21.67;21.33;;;;;8.74;100.00;103472.53;5080129;28;45375;-88
2022/03/18 09:02:09;;;;;;;;;32.00;26.00;;;;;8.76;100.00;103477.84;5074872;27;45368;-86
2022/03/18 09:04:35;;;;;;;;;25.00;23.00;;;;;8.89;100.00;103460.81;5074361;27;45292;-87
2022/03/18 09:07:00;;;;;;;;;28.67;25.67;;;;;8.93;100.00;103480.19;5081520;28;44743;-89
2022/03/18 09:09:25;;;;;;;;;19.75;19.00;;;;;9.04;100.00;103470.28;5072263;28;44623;-88
2022/03/18 09:11:51;;;;;;;;;26.00;19.33;;;;;9.06;100.00;103479.13;5085949;27;44913;-87
2022/03/18 09:14:17;;;;;;;;;10.00;10.00;;;;;9.08;100.00;103481.72;5067031;28;46204;-87
2022/03/18 09:16:42;;;;;;;;;27.00;24.00;;;;;9.05;100.00;103492.41;5071664;28;45162;-86
2022/03/18 09:19:08;;;;;;;;;26.50;23.75;;;;;9.14;100.00;103490.47;5080647;27;45384;-88
2022/03/18 09:21:34;;;;;;;;;22.67;20.33;;;;;9.22;100.00;103477.94;5069264;28;44889;-87
2022/03/18 09:24:00;;;;;;;;;19.33;16.33;;;;;9.27;100.00;103492.00;5084341;27;45219;-87
2022/03/18 09:26:26;;;;;;;;;25.33;25.00;;;;;9.26;100.00;103477.00;5079003;28;44921;-86
2022/03/18 09:28:52;;;;;;;;;25.00;23.33;;;;;9.30;100.00;103495.53;5077749;28;45419;-88
2022/03/18 09:31:17;;;;;;;;;18.00;14.67;;;;;9.30;100.00;103479.59;5083407;27;44954;-89
2022/03/18 09:33:43;;;;;;;;;21.00;19.25;;;;;9.35;100.00;103488.34;5078939;27;45122;-88
2022/03/18 09:36:10;;;;;;;;;28.33;21.00;;;;;9.48;100.00;103490.78;5074559;27;44749;-88
2022/03/18 09:38:36;;;;;;;;;20.25;19.25;;;;;9.58;100.00;103483.50;5074583;27;44788;-89
2022/03/18 09:41:01;;;;;;;;;24.50;21.75;;;;;9.75;100.00;103486.69;5083359;28;44906;-88
2022/03/18 09:43:32;;;;;;;;;27.50;22.25;;;;;9.85;100.00;103489.19;5068078;27;45302;-89
2022/03/18 09:45:58;;;;;;;;;25.00;20.00;;;;;9.85;100.00;103487.41;5072524;28;45185;-88
2022/03/18 09:48:24;;;;;;;;;21.50;21.50;;;;;9.97;100.00;103489.81;5072520;27;45339;-87
2022/03/18 09:50:58;;;;;;;;;19.25;17.25;;;;;10.13;100.00;103489.50;5065403;28;45331;-88
2022/03/18 09:53:25;;;;;;;;;26.67;22.00;;;;;10.32;100.00;103487.38;5083115;27;45370;-90
2022/03/18 09:55:51;;;;;;;;;21.75;20.75;;;;;10.47;100.00;103490.56;5067067;28;44809;-90
2022/03/18 09:58:18;;;;;;;;;9.75;7.25;;;;;10.48;100.00;103489.63;5074758;28;44634;-89
2022/03/18 10:00:43;;;;;;;;;25.25;20.25;;;;;10.46;100.00;103491.47;5078604;28;44767;-90
2022/03/18 10:03:16;;;;;;;;;19.75;19.50;;;;;10.56;100.00;103486.81;5094586;28;45169;-90
2022/03/18 10:06:00;;;;;;;;;17.25;14.50;;;;;10.62;100.00;103486.66;5070622;27;44607;-91
2022/03/18 10:08:35;;;;;;;;;26.75;24.25;;;;;10.65;98.46;103496.38;5080586;27;44736;-90
2022/03/18 10:11:32;;;;;;;;;23.50;20.25;;;;;10.71;94.74;103493.56;5097386;27;44911;-88
2022/03/18 10:14:01;;;;;;;;;20.50;17.25;;;;;10.77;90.69;103506.72;5075017;28;45615;-90
2022/03/18 10:16:44;;;;;;;;;18.50;16.50;;;;;10.88;95.68;103491.41;5083103;28;44787;-90
2022/03/18 10:19:22;;;;;;;;;19.25;16.00;;;;;10.95;91.70;103487.66;5065389;28;44759;-90
2022/03/18 10:21:54;;;;;;;;;17.00;15.00;;;;;11.13;93.27;103509.41;5066829;28;45426;-90
2022/03/18 10:24:31;;;;;;;;;16.50;16.00;;;;;11.19;94.40;103491.50;5080318;27;45238;-90
2022/03/18 10:27:12;;;;;;;;;14.25;13.00;;;;;11.30;88.46;103497.41;5084209;28;45313;-90
2022/03/18 10:29:42;;;;;;;;;15.50;15.00;;;;;11.39;84.67;103504.28;5069009;27;44744;-90
2022/03/18 10:32:09;;;;;;;;;14.00;12.25;;;;;11.41;79.20;103497.16;5086888;27;45431;-90
2022/03/18 10:37:21;;;;;;;;;21.25;16.25;;;;;11.65;88.97;103484.94;5088526;28;45287;-90
2022/03/18 10:39:50;;;;;;;;;18.75;15.75;;;;;11.72;82.02;103448.41;5088898;27;45249;-89
2022/03/18 10:42:20;;;;;;;;;15.50;15.50;;;;;11.77;78.62;103470.44;5086781;28;45508;-88
2022/03/18 10:44:53;;;;;;;;;28.25;22.50;;;;;11.91;79.58;103444.31;5086484;27;45406;-88
2022/03/18 10:47:42;;;;;;;;;12.60;12.60;;;;;11.87;72.77;103461.31;5076691;27;44831;-89
2022/03/18 10:50:16;;;;;;;;;8.50;7.50;;;;;11.90;80.13;103477.22;5082423;27;44618;-88
2022/03/18 10:52:45;;;;;;;;;12.00;10.00;;;;;11.96;78.04;103469.03;5080022;27;45391;-89
2022/03/18 10:55:29;;;;;;;;;17.25;16.00;;;;;12.01;77.43;103471.56;5095894;27;45425;-89
2022/03/18 10:58:12;;;;;;;;;16.40;13.80;;;;;12.05;75.18;103473.22;5092872;28;44878;-90
2022/03/18 11:00:51;;;;;;;;;17.75;13.75;;;;;12.13;74.99;103473.84;5093590;27;45263;-89
2022/03/18 11:03:17;;;;;;;;;17.25;16.00;;;;;12.28;74.77;103454.75;5087763;27;45248;-91
2022/03/18 11:05:49;;;;;;;;;9.75;7.75;;;;;12.24;65.53;103481.56;5086178;27;45280;-87
2022/03/18 11:08:21;;;;;;;;;11.00;11.00;;;;;12.29;65.21;103477.84;5086154;28;45414;-89
2022/03/18 11:11:07;;;;;;;;;12.25;12.25;;;;;12.39;63.70;103469.56;5064530;28;44774;-89
2022/03/18 11:13:42;;;;;;;;;8.00;6.75;;;;;12.38;65.06;103462.47;5059452;28;45160;-90
2022/03/18 11:16:11;;;;;;;;;12.00;11.50;;;;;12.47;64.59;103468.38;5060927;28;45397;-90
2022/03/18 11:18:37;;;;;;;;;12.75;10.00;;;;;12.55;71.55;103425.47;5061632;28;44823;-90
2022/03/18 11:21:05;;;;;;;;;16.00;10.50;;;;;12.52;55.26;103465.56;5067174;28;44749;-86
2022/03/18 11:23:34;;;;;;;;;10.50;10.25;;;;;12.63;60.63;103454.59;5070525;28;44824;-90
2022/03/18 11:26:03;;;;;;;;;9.00;8.50;;;;;12.70;52.07;103449.00;5072154;28;46776;-88
2022/03/18 11:28:30;;;;;;;;;13.40;13.40;;;;;12.77;51.16;103458.56;5052150;28;44721;-89
2022/03/18 11:31:10;;;;;;;;;6.60;6.60;;;;;12.88;54.37;103449.31;5076487;28;44626;-90
2022/03/18 11:33:38;;;;;;;;;17.25;15.25;;;;;12.94;58.57;103455.31;5068337;27;44792;-90
2022/03/18 11:36:05;;;;;;;;;15.00;14.00;;;;;13.00;56.55;103464.91;5071716;28;45072;-90